Time;durP1;ratioP1;P1;durP2;ratioP2;P2;SDS_P1;SDS_P2;PMS_P1;PMS_P2;Temp;Humidity;BMP_temperature;BMP_pressure;BME280_temperature;BME280_humidity;BME280_pressure;Samples;Min_cycle;Max_cycle;Signal;HPM_P1;HPM_P2
2021/09/28 00:00:52;;;;;;;1.60;1.50;;;22.00;52.40;;;26.09;34.65;101630.84;5115352;28;20047;-11
2021/09/28 00:03:18;;;;;;;1.63;1.52;;;21.90;52.40;;;26.10;34.68;101633.41;5115158;28;20101;-10
2021/09/28 00:05:45;;;;;;;1.42;1.33;;;22.00;52.50;;;26.10;34.88;101636.09;5115527;28;20127;-11
2021/09/28 00:08:10;;;;;;;1.70;1.60;;;22.00;52.50;;;26.09;34.73;101647.78;5114167;28;20051;-11
2021/09/28 00:10:36;;;;;;;1.65;1.55;;;22.00;52.50;;;26.10;34.67;101646.81;5114866;28;20081;-11
2021/09/28 00:13:05;;;;;;;1.90;1.80;;;21.90;52.50;;;26.09;34.78;101649.63;5114958;28;20052;-11
2021/09/28 00:15:31;;;;;;;2.05;1.90;;;21.90;52.60;;;26.09;34.70;101657.66;5114843;28;20388;-11
2021/09/28 00:19:12;;;;;;;1.65;1.55;;;21.90;52.50;;;26.14;34.69;101655.50;5114752;28;20090;-11
2021/09/28 00:21:38;;;;;;;1.63;1.52;;;21.90;52.50;;;26.07;34.70;101647.88;5114683;28;20526;-11
2021/09/28 00:24:04;;;;;;;2.38;1.70;;;21.90;52.50;;;26.07;34.76;101657.75;5115044;28;20055;-11
2021/09/28 00:26:30;;;;;;;1.88;1.70;;;21.90;52.50;;;26.08;34.73;101654.13;5115032;28;20082;-11
2021/09/28 00:28:56;;;;;;;1.67;1.58;;;21.90;52.60;;;26.05;34.77;101652.50;5114623;28;20079;-11
2021/09/28 00:31:21;;;;;;;1.60;1.50;;;21.90;52.60;;;26.07;34.69;101647.88;5114696;28;20040;-10
2021/09/28 00:33:47;;;;;;;1.80;1.70;;;21.90;52.60;;;26.07;34.76;101653.25;5114694;28;20497;-10
2021/09/28 00:36:13;;;;;;;1.60;1.50;;;21.90;52.60;;;26.08;34.88;101662.16;5114543;28;20407;-11
2021/09/28 00:38:38;;;;;;;2.03;1.92;;;21.90;52.50;;;26.05;34.66;101657.88;5114808;28;20390;-10
2021/09/28 00:41:04;;;;;;;1.73;1.63;;;21.90;52.50;;;26.06;34.75;101650.66;5114583;28;20054;-11
2021/09/28 00:43:53;;;;;;;2.13;1.98;;;21.90;52.60;;;26.05;34.88;101660.53;5096465;28;20044;-10
2021/09/28 00:46:20;;;;;;;1.90;1.80;;;21.90;52.60;;;26.05;34.67;101660.53;5114506;28;20048;-11
2021/09/28 00:48:47;;;;;;;2.00;1.90;;;21.90;52.60;;;26.01;34.65;101653.69;5114437;28;20065;-11
2021/09/28 00:51:15;;;;;;;1.92;1.83;;;21.90;52.70;;;26.02;34.69;101666.13;5096472;28;20403;-10
2021/09/28 00:53:43;;;;;;;1.75;1.60;;;21.90;52.70;;;26.05;34.96;101670.41;5114295;28;20052;-10
2021/09/28 00:56:14;;;;;;;1.80;1.70;;;21.90;52.60;;;26.03;34.73;101675.88;5094797;28;20138;-10
2021/09/28 00:58:40;;;;;;;;;;;21.90;52.60;;;26.18;34.59;101678.44;5114653;28;20072;-11
2021/09/28 01:01:09;;;;;;;1.80;1.70;;;21.90;52.70;;;26.08;34.70;101683.59;5114118;28;19922;-11
2021/09/28 01:03:35;;;;;;;1.85;1.75;;;21.90;52.60;;;26.07;34.65;101692.59;5114573;28;20040;-10
2021/09/28 01:06:02;;;;;;;1.90;1.80;;;21.90;52.70;;;26.04;34.84;101679.41;5114052;28;20046;-10
2021/09/28 01:08:28;;;;;;;1.70;1.60;;;21.90;52.60;;;26.03;34.73;101689.28;5114434;28;20055;-11
2021/09/28 01:10:55;;;;;;;1.80;1.70;;;21.90;52.60;;;26.05;34.67;101692.69;5114407;28;20172;-11
2021/09/28 01:13:22;;;;;;;1.85;1.75;;;21.90;52.60;;;26.03;34.86;101696.47;5114062;28;20051;-10
2021/09/28 01:16:10;;;;;;;1.80;1.70;;;21.90;52.60;;;26.04;34.85;101700.84;5113941;28;20384;-10
2021/09/28 01:18:41;;;;;;;2.08;1.73;;;21.90;52.60;;;26.02;34.69;101705.47;5114000;28;20467;-11
2021/09/28 01:21:11;;;;;;;1.65;1.50;;;21.90;52.60;;;26.03;34.77;101701.84;5113685;28;20050;-11
2021/09/28 01:23:44;;;;;;;1.83;1.63;;;21.90;52.60;;;26.03;34.66;101704.50;5113916;28;20500;-10
2021/09/28 01:26:17;;;;;;;1.75;1.65;;;21.90;52.60;;;26.02;34.77;101706.31;5113946;28;20487;-11
2021/09/28 01:28:46;;;;;;;1.50;1.40;;;21.90;52.60;;;26.03;34.78;101707.19;5113741;28;20051;-10
2021/09/28 01:31:13;;;;;;;1.70;1.60;;;21.90;52.60;;;26.05;34.69;101719.50;5113743;28;20516;-11
2021/09/28 01:33:39;;;;;;;3.28;1.60;;;21.90;52.60;;;26.03;34.96;101721.44;5113779;28;20044;-11
2021/09/28 01:36:05;;;;;;;1.50;1.40;;;21.90;52.70;;;26.04;34.87;101728.53;5113703;28;20051;-10
2021/09/28 01:38:31;;;;;;;1.80;1.60;;;21.90;52.70;;;26.03;34.78;101726.81;5113526;28;20074;-10
2021/09/28 01:40:57;;;;;;;1.40;1.20;;;21.80;52.60;;;26.02;34.78;101721.53;5113393;28;20487;-10
2021/09/28 01:43:23;;;;;;;1.63;1.52;;;21.90;52.60;;;26.00;34.75;101724.34;5113575;28;20052;-11
2021/09/28 01:45:58;;;;;;;1.63;1.52;;;21.90;52.60;;;26.00;34.81;101724.34;5113491;28;20050;-11
2021/09/28 01:48:33;;;;;;;1.50;1.40;;;21.90;52.60;;;26.02;34.86;101724.22;5113779;28;20133;-11
2021/09/28 01:50:59;;;;;;;2.10;1.90;;;21.90;52.70;;;26.04;34.85;101733.00;5095209;28;20052;-11
2021/09/28 01:53:25;;;;;;;1.52;1.42;;;21.90;52.70;;;26.03;34.81;101726.81;5113491;28;20082;-10
2021/09/28 01:55:51;;;;;;;1.70;1.60;;;21.90;52.70;;;26.01;34.79;101725.19;5095175;28;20071;-11
2021/09/28 01:58:17;;;;;;;1.63;1.52;;;21.90;52.70;;;26.02;34.82;101721.53;5113063;28;20123;-11
2021/09/28 02:00:44;;;;;;;1.80;1.70;;;21.80;52.60;;;26.03;34.73;101728.63;5113358;28;20377;-11
2021/09/28 02:03:11;;;;;;;1.80;1.70;;;21.80;52.60;;;26.00;34.77;101724.34;5095644;28;20043;-11
2021/09/28 02:05:39;;;;;;;1.50;1.40;;;21.90;52.70;;;26.03;34.82;101728.63;5113172;28;20039;-11
2021/09/28 02:08:05;;;;;;;1.60;1.50;;;21.90;52.70;;;26.03;34.88;101726.81;5113519;28;20050;-10
2021/09/28 02:10:31;;;;;;;1.60;1.50;;;21.80;52.60;;;26.01;34.89;101739.47;5113497;28;20047;-11
2021/09/28 02:12:57;;;;;;;1.67;1.58;;;21.90;52.70;;;26.01;34.80;101733.22;5113238;28;20071;-11
2021/09/28 02:15:23;;;;;;;2.25;1.60;;;21.80;52.60;;;26.02;34.87;101734.94;5113333;28;20048;-11
2021/09/28 02:17:49;;;;;;;1.50;1.40;;;21.90;52.60;;;26.00;34.81;101732.38;5112102;28;20047;-10
2021/09/28 02:20:15;;;;;;;1.90;1.77;;;21.90;52.60;;;26.02;34.73;101740.31;5112916;28;20040;-11
2021/09/28 02:22:40;;;;;;;1.50;1.40;;;21.80;52.80;;;25.98;34.80;101731.63;5092800;28;20051;-11
2021/09/28 02:25:08;;;;;;;1.73;1.63;;;21.80;52.60;;;26.01;34.74;101744.81;5112999;28;20965;-11
2021/09/28 02:27:35;;;;;;;1.95;1.80;;;21.80;52.60;;;25.98;34.93;101738.81;5112793;28;20483;-11
2021/09/28 02:30:00;;;;;;;1.40;1.30;;;21.80;52.70;;;26.02;34.76;101748.34;5112986;28;20089;-11
2021/09/28 02:32:26;;;;;;;1.60;1.50;;;21.80;52.60;;;26.00;34.77;101739.56;5114562;28;20056;-11
2021/09/28 02:34:52;;;;;;;1.65;1.55;;;21.90;52.70;;;26.01;34.85;101738.56;5116907;28;20441;-11
2021/09/28 02:37:18;;;;;;;2.10;1.60;;;21.80;52.60;;;25.98;34.81;101744.19;5116376;28;20059;-11
2021/09/28 02:39:44;;;;;;;1.90;1.80;;;21.80;52.60;;;25.99;34.87;101752.09;5116803;28;20464;-11
2021/09/28 02:42:11;;;;;;;1.50;1.40;;;21.80;52.70;;;25.98;34.87;101755.75;5116336;28;20056;-11
2021/09/28 02:44:37;;;;;;;1.70;1.60;;;21.80;52.70;;;25.98;34.96;101746.84;5116942;28;20051;-11
2021/09/28 02:47:04;;;;;;;1.80;1.70;;;21.80;52.60;;;25.97;34.88;101754.00;5116168;28;20051;-10
2021/09/28 02:49:30;;;;;;;1.58;1.48;;;21.80;52.70;;;25.98;34.77;101758.44;5116343;28;20047;-10
2021/09/28 02:51:58;;;;;;;1.98;1.75;;;21.80;52.60;;;25.98;34.75;101752.22;5116596;28;20472;-11
2021/09/28 02:54:26;;;;;;;1.48;1.38;;;21.80;52.70;;;25.98;34.69;101749.53;5116450;28;20047;-10
2021/09/28 02:56:52;;;;;;;1.75;1.65;;;21.80;52.70;;;25.97;34.80;101750.50;5116074;28;20055;-11
2021/09/28 02:59:18;;;;;;;1.70;1.60;;;21.80;52.70;;;25.97;34.91;101759.38;5116379;28;20113;-11
2021/09/28 03:01:44;;;;;;;1.45;1.35;;;21.80;52.70;;;25.99;35.02;101760.13;5116137;28;20134;-10
2021/09/28 03:04:11;;;;;;;1.70;1.60;;;21.80;52.70;;;25.97;34.84;101761.22;5116280;28;20510;-11
2021/09/28 03:06:36;;;;;;;1.52;1.42;;;21.80;52.70;;;25.97;34.79;101762.06;5115880;28;20051;-11
2021/09/28 03:09:02;;;;;;;1.60;1.50;;;21.80;52.70;;;25.97;34.77;101763.88;5115946;28;20055;-11
2021/09/28 03:11:28;;;;;;;1.75;1.65;;;21.80;52.70;;;26.00;34.80;101771.72;5115906;28;20079;-10
2021/09/28 03:13:55;;;;;;;1.50;1.40;;;21.80;52.70;;;25.98;34.77;101774.50;5116149;28;20044;-11
2021/09/28 03:16:22;;;;;;;1.77;1.67;;;21.80;52.70;;;25.97;34.84;101771.94;5116022;28;20135;-11
2021/09/28 03:18:48;;;;;;;1.88;1.77;;;21.80;52.60;;;25.98;34.92;101770.97;5115801;28;20100;-11
2021/09/28 03:21:13;;;;;;;1.70;1.60;;;21.80;52.60;;;25.98;34.89;101779.84;5115763;28;20406;-10
2021/09/28 03:23:39;;;;;;;1.67;1.58;;;21.80;52.70;;;25.95;34.95;101774.72;5115754;28;20052;-11
2021/09/28 03:26:05;;;;;;;1.58;1.48;;;21.80;52.70;;;25.93;35.05;101773.94;5116039;28;20559;-11
2021/09/28 03:28:32;;;;;;;1.42;1.33;;;21.80;52.80;;;25.95;34.81;101777.38;5115706;28;20054;-11
2021/09/28 03:30:59;;;;;;;1.73;1.63;;;21.80;52.70;;;25.95;34.83;101777.38;5097438;28;20049;-11
2021/09/28 03:33:26;;;;;;;1.50;1.40;;;21.80;52.70;;;25.97;34.88;101783.50;5115680;28;20403;-11
2021/09/28 03:35:52;;;;;;;1.75;1.65;;;21.80;52.70;;;25.94;34.95;101785.50;5114046;28;20483;-11
2021/09/28 03:38:18;;;;;;;1.55;1.45;;;21.80;52.70;;;25.96;34.92;101789.84;5115617;28;20135;-10
2021/09/28 03:40:45;;;;;;;1.58;1.48;;;21.80;52.70;;;25.94;34.90;101789.03;5115393;28;20043;-10
2021/09/28 03:43:10;;;;;;;1.67;1.52;;;21.80;52.70;;;25.95;34.91;101790.78;5097513;28;20135;-11
2021/09/28 03:45:37;;;;;;;1.98;1.50;;;21.80;52.70;;;25.94;34.90;101797.06;5096638;28;20052;-11
2021/09/28 03:48:04;;;;;;;1.40;1.30;;;21.80;52.80;;;25.95;34.98;101797.94;5097124;28;20487;-11
2021/09/28 03:50:31;;;;;;;1.60;1.50;;;21.80;52.80;;;25.96;34.90;101808.59;5115181;28;20133;-10
2021/09/28 03:52:58;;;;;;;1.73;1.63;;;21.80;52.80;;;25.96;35.03;101807.72;5115334;28;20051;-11
2021/09/28 03:55:24;;;;;;;1.60;1.50;;;21.80;52.90;;;25.95;34.99;101808.66;5115823;28;20475;-10
2021/09/28 03:57:51;;;;;;;1.70;1.60;;;21.80;52.80;;;25.95;34.85;101808.66;5115172;28;20039;-11
2021/09/28 04:00:20;;;;;;;1.67;1.58;;;21.80;52.80;;;25.93;34.93;101813.25;5115172;28;20047;-11
2021/09/28 04:02:48;;;;;;;1.42;1.33;;;21.70;52.90;;;25.92;35.07;101808.88;5115434;28;20051;-11
2021/09/28 04:05:14;;;;;;;1.60;1.50;;;21.70;52.90;;;25.93;35.07;101824.84;5115024;28;20073;-10
2021/09/28 04:07:40;;;;;;;1.60;1.50;;;21.70;53.00;;;25.91;34.96;101823.22;5115401;28;20084;-11
2021/09/28 04:10:09;;;;;;;1.52;1.42;;;21.70;53.00;;;25.92;35.01;101820.44;5115315;28;20040;-11
2021/09/28 04:12:36;;;;;;;1.60;1.50;;;21.70;53.00;;;25.89;35.07;101829.56;5113627;28;20456;-11
2021/09/28 04:15:04;;;;;;;1.65;1.55;;;21.70;52.90;;;25.93;35.00;101829.31;5115073;28;20121;-11
2021/09/28 04:17:30;;;;;;;1.85;1.73;;;21.70;52.90;;;25.92;35.07;101835.66;5115226;28;20047;-11
2021/09/28 04:19:56;;;;;;;1.50;1.40;;;21.70;52.90;;;25.92;35.00;101835.66;5114729;28;20058;-11
2021/09/28 04:22:23;;;;;;;1.52;1.42;;;21.70;52.90;;;25.91;34.85;101841.97;5115022;28;20047;-11
2021/09/28 04:24:50;;;;;;;1.98;1.85;;;21.70;53.00;;;25.91;35.04;101842.84;5114841;28;20043;-10
2021/09/28 04:27:18;;;;;;;1.52;1.42;;;21.70;52.90;;;25.91;35.02;101837.50;5094595;28;20043;-11
2021/09/28 04:29:43;;;;;;;1.60;1.50;;;21.70;53.00;;;25.89;35.17;101845.63;5114700;28;20044;-11
2021/09/28 04:32:09;;;;;;;1.67;1.58;;;21.70;52.90;;;25.91;34.94;101844.66;5114728;28;20074;-11
2021/09/28 04:34:36;;;;;;;1.92;1.70;;;21.70;52.90;;;25.92;34.96;101857.09;5096452;28;20040;-11
2021/09/28 04:37:04;;;;;;;1.60;1.50;;;21.70;53.00;;;25.91;34.90;101853.56;5114657;28;20043;-11
2021/09/28 04:39:31;;;;;;;1.52;1.42;;;21.70;53.00;;;25.88;35.05;101857.31;5114504;28;20044;-11
2021/09/28 04:41:58;;;;;;;1.73;1.63;;;21.70;53.00;;;25.88;34.98;101868.03;5096908;28;20065;-10
2021/09/28 04:44:23;;;;;;;1.52;1.42;;;21.70;53.10;;;25.88;35.10;101870.69;5115084;28;20047;-11
2021/09/28 04:46:49;;;;;;;1.67;1.58;;;21.70;53.10;;;25.87;35.14;101870.81;5114348;28;20097;-11
2021/09/28 04:49:15;;;;;;;1.77;1.65;;;21.70;53.20;;;25.87;35.09;101877.00;5114082;28;20055;-11
2021/09/28 04:51:41;;;;;;;1.60;1.50;;;21.70;53.20;;;25.88;35.07;101883.25;5114574;28;20058;-10
2021/09/28 04:54:07;;;;;;;1.63;1.52;;;21.70;53.10;;;25.89;35.13;101888.50;5113717;28;20055;-11
2021/09/28 04:56:35;;;;;;;1.58;1.48;;;21.70;53.20;;;25.88;35.16;101883.25;5114429;28;20090;-11
2021/09/28 04:59:01;;;;;;;1.85;1.75;;;21.70;53.20;;;25.88;35.25;101893.97;5114436;28;20054;-10
2021/09/28 05:01:27;;;;;;;1.60;1.50;;;21.70;53.30;;;25.87;35.10;101890.41;5114070;28;20055;-11
2021/09/28 05:03:53;;;;;;;1.80;1.70;;;21.70;53.20;;;25.85;35.30;101891.47;5114338;28;20050;-10
2021/09/28 05:06:18;;;;;;;1.63;1.52;;;21.70;53.20;;;25.86;35.09;101896.75;5114359;28;20047;-11
2021/09/28 05:08:44;;;;;;;1.92;1.73;;;21.70;53.20;;;25.88;35.24;101902.00;5114131;28;20052;-10
2021/09/28 05:11:11;;;;;;;1.65;1.55;;;21.70;53.30;;;25.86;35.11;101896.75;5114158;28;20048;-10
2021/09/28 05:13:38;;;;;;;1.77;1.67;;;21.70;53.20;;;25.88;35.24;101902.00;5113795;28;20047;-11
2021/09/28 05:16:05;;;;;;;1.60;1.50;;;21.70;53.20;;;25.85;35.09;101908.41;5114064;28;20054;-11
2021/09/28 05:18:31;;;;;;;1.90;1.80;;;21.70;53.30;;;25.87;35.15;101911.00;5114026;28;20134;-11
2021/09/28 05:20:58;;;;;;;1.60;1.50;;;21.70;53.30;;;25.85;35.24;101913.75;5114128;28;20535;-11
2021/09/28 05:23:23;;;;;;;1.60;1.50;;;21.70;53.30;;;25.86;35.20;101915.50;5113773;28;20085;-11
2021/09/28 05:25:49;;;;;;;1.77;1.42;;;21.70;53.20;;;25.88;35.25;101918.94;5113864;28;20515;-11
2021/09/28 05:28:15;;;;;;;1.60;1.50;;;21.70;53.20;;;25.87;35.21;101916.34;5113793;28;20039;-10
2021/09/28 05:30:44;;;;;;;1.38;1.27;;;21.70;53.30;;;25.88;35.18;101921.59;5114330;28;20454;-11
2021/09/28 05:33:11;;;;;;;1.40;1.30;;;21.70;53.20;;;25.88;35.18;101923.44;5096042;28;20047;-11
2021/09/28 05:35:37;;;;;;;1.80;1.60;;;21.70;53.20;;;25.88;35.15;101920.75;5113966;28;20052;-11
2021/09/28 05:38:04;;;;;;;1.50;1.40;;;21.70;53.20;;;25.88;35.26;101926.97;5113313;28;20489;-11
2021/09/28 05:40:30;;;;;;;1.60;1.50;;;21.70;53.20;;;25.88;35.21;101924.28;5114140;28;20043;-10
2021/09/28 05:42:56;;;;;;;1.60;1.50;;;21.70;53.80;;;25.88;35.25;101929.66;5113262;28;20055;-10
2021/09/28 05:45:22;;;;;;;1.60;1.50;;;21.70;53.20;;;25.91;35.24;101933.06;5113322;28;20035;-10
2021/09/28 05:47:48;;;;;;;1.60;1.50;;;21.70;53.20;;;25.92;35.11;101940.16;5113502;28;20476;-11
2021/09/28 05:50:15;;;;;;;1.90;1.63;;;21.70;53.20;;;25.88;35.23;101932.31;5113325;28;20430;-10
2021/09/28 05:52:43;;;;;;;1.30;1.20;;;21.70;53.20;;;25.91;35.18;101941.13;5095313;28;20490;-10
2021/09/28 05:55:09;;;;;;;1.70;1.60;;;21.70;53.10;;;25.88;35.06;101948.41;5113538;28;20043;-10
2021/09/28 05:57:35;;;;;;;1.27;1.17;;;21.70;53.10;;;25.93;35.21;101947.22;5113446;28;20043;-11
2021/09/28 06:00:01;;;;;;;1.83;1.73;;;21.70;53.10;;;25.91;35.17;101946.47;5113250;28;20073;-10
2021/09/28 06:02:27;;;;;;;1.42;1.33;;;21.80;53.10;;;25.90;35.07;101937.59;5094914;28;20047;-11
2021/09/28 06:04:53;;;;;;;1.40;1.30;;;21.70;53.00;;;25.94;35.08;101954.31;5113374;28;20120;-10
2021/09/28 06:07:20;;;;;;;1.48;1.38;;;21.80;53.00;;;25.95;35.21;101950.69;5112075;28;20397;-11
2021/09/28 06:09:46;;;;;;;1.50;1.40;;;21.80;52.90;;;25.98;35.22;101948.69;5110979;28;20046;-11
2021/09/28 06:12:12;;;;;;;1.50;1.40;;;21.90;52.70;;;26.04;35.14;101961.69;5113418;28;20059;-11
2021/09/28 06:14:39;;;;;;;1.60;1.50;;;22.00;52.50;;;26.09;35.09;101963.19;5113109;28;20069;-11
2021/09/28 06:17:06;;;;;;;1.30;1.20;;;22.10;52.20;;;26.14;34.99;101963.75;5113007;28;20077;-11
2021/09/28 06:19:34;;;;;;;1.40;1.30;;;22.20;52.10;;;26.18;34.96;101968.81;5113569;28;20047;-11
2021/09/28 06:22:04;;;;;;;1.50;1.40;;;22.20;52.00;;;26.20;34.81;101969.56;5113275;28;20043;-10
2021/09/28 06:24:32;;;;;;;1.50;1.40;;;22.20;52.00;;;26.23;34.93;101973.88;5113171;28;20035;-10
2021/09/28 06:27:04;;;;;;;1.67;1.58;;;22.20;51.90;;;26.22;34.73;101969.44;5112886;28;20112;-11
2021/09/28 06:29:30;;;;;;;1.60;1.50;;;22.30;51.90;;;26.25;34.68;101979.97;5112828;28;20052;-10
2021/09/28 06:31:57;;;;;;;1.33;1.23;;;22.20;51.90;;;26.25;34.77;101982.66;5112672;28;20048;-10
2021/09/28 06:34:24;;;;;;;1.60;1.38;;;22.20;51.90;;;26.25;34.58;101980.81;5112896;28;20058;-11
2021/09/28 06:36:50;;;;;;;1.40;1.30;;;22.20;51.90;;;26.27;34.76;101988.75;5094814;28;20039;-11
2021/09/28 06:39:16;;;;;;;1.52;1.42;;;22.20;51.90;;;26.26;34.81;101997.75;5112665;28;20122;-10
2021/09/28 06:41:42;;;;;;;1.33;1.23;;;22.20;52.00;;;26.26;34.60;101989.72;5112405;28;20440;-11
2021/09/28 06:44:08;;;;;;;1.52;1.20;;;22.20;51.90;;;26.30;34.77;102001.97;5092536;28;20052;-11
2021/09/28 06:46:34;;;;;;;1.40;1.30;;;22.30;51.90;;;26.28;34.51;102001.22;5094082;28;20056;-11
2021/09/28 06:49:00;;;;;;;1.40;1.30;;;22.20;51.90;;;26.29;34.74;101996.72;5112465;28;20184;-11
2021/09/28 06:51:26;;;;;;;1.50;1.40;;;22.30;51.80;;;26.30;34.53;102001.13;5112482;28;20052;-10
2021/09/28 06:53:52;;;;;;;1.30;1.30;;;22.30;51.80;;;26.30;34.65;101999.28;5112566;28;20502;-10
2021/09/28 06:56:18;;;;;;;1.65;1.30;;;22.30;51.60;;;26.30;34.73;101995.75;5112332;28;20043;-11
2021/09/28 06:58:45;;;;;;;1.40;1.30;;;22.40;51.50;;;26.38;34.50;102007.69;5112526;28;20048;-11
2021/09/28 07:01:12;;;;;;;1.58;1.48;;;22.40;51.40;;;26.37;34.50;102005.94;5112386;28;20043;-13
2021/09/28 07:03:38;;;;;;;1.33;1.23;;;22.40;51.50;;;26.38;34.57;102006.81;5094161;28;20078;-10
2021/09/28 07:06:03;;;;;;;1.30;1.20;;;22.40;51.50;;;26.37;34.48;102005.09;5112438;28;20051;-10
2021/09/28 07:08:29;;;;;;;2.38;1.65;;;22.30;51.60;;;26.37;34.44;102008.63;5112518;28;20112;-11
2021/09/28 07:10:55;;;;;;;1.40;1.30;;;22.30;51.70;;;26.33;34.38;102004.44;5112265;28;20079;-11
2021/09/28 07:13:21;;;;;;;1.23;1.13;;;22.30;51.80;;;26.33;34.41;102009.81;5077519;28;20491;-10
2021/09/28 07:15:47;;;;;;;1.48;1.30;;;22.30;51.80;;;26.34;34.56;102008.84;5112396;28;20054;-11
2021/09/28 07:18:13;;;;;;;1.70;1.60;;;22.30;51.90;;;26.34;34.54;102011.50;5113638;28;20106;-11
2021/09/28 07:20:39;;;;;;;1.55;1.45;;;22.30;51.80;;;26.32;34.52;102009.91;5097445;28;20435;-11
2021/09/28 07:23:08;;;;;;;1.55;1.45;;;22.30;51.90;;;26.33;34.45;102009.81;5115953;28;20125;-11
2021/09/28 07:25:34;;;;;;;1.40;1.25;;;22.20;51.90;;;26.35;34.61;102015.94;5115737;28;20059;-10
2021/09/28 07:28:00;;;;;;;1.30;1.20;;;22.30;51.80;;;26.35;34.46;102009.72;5115796;28;20503;-11
2021/09/28 07:30:28;;;;;;;1.38;1.27;;;22.30;51.70;;;26.36;34.61;102012.28;5115507;28;20542;-10
2021/09/28 07:32:54;;;;;;;1.48;1.38;;;22.30;52.20;;;26.42;34.48;102022.59;5115635;28;20139;-11
2021/09/28 07:35:20;;;;;;;1.40;1.30;;;22.40;51.50;;;26.47;34.54;102019.59;5115559;28;20470;-11
2021/09/28 07:37:45;;;;;;;1.65;1.40;;;22.50;51.30;;;26.54;34.36;102030.78;5115894;28;20119;-10
2021/09/28 07:40:12;;;;;;;1.35;1.25;;;22.60;51.20;;;26.57;34.38;102022.53;5115266;28;20048;-10
2021/09/28 07:42:38;;;;;;;2.28;1.67;;;22.60;51.10;;;26.58;34.40;102026.91;5115355;28;20189;-10
2021/09/28 07:45:06;;;;;;;1.42;1.33;;;22.60;51.10;;;26.62;34.47;102020.38;5115551;28;20056;-10
2021/09/28 07:47:32;;;;;;;1.30;1.20;;;22.70;51.20;;;26.67;34.48;102023.66;5115442;28;20043;-10
2021/09/28 07:49:58;;;;;;;2.15;1.55;;;22.70;51.20;;;26.69;34.19;102029.75;5096669;28;20499;-10
2021/09/28 07:52:24;;;;;;;2.15;1.23;;;22.70;51.10;;;26.73;34.45;102033.09;5115267;28;20403;-10
2021/09/28 07:54:51;;;;;;;1.45;1.35;;;22.70;51.10;;;26.71;34.27;102026.97;5095763;28;20079;-10
2021/09/28 07:57:17;;;;;;;1.40;1.30;;;22.60;51.10;;;26.74;34.18;102029.47;5115195;28;20475;-10
2021/09/28 07:59:43;;;;;;;1.20;1.10;;;22.70;51.10;;;26.75;34.03;102032.03;5115168;28;20039;-10
2021/09/28 08:02:09;;;;;;;1.73;1.63;;;22.60;51.20;;;26.73;34.19;102028.59;5079940;28;20484;-10
2021/09/28 08:04:37;;;;;;;1.58;1.48;;;22.60;51.30;;;26.73;33.88;102025.91;5115146;28;20046;-10
2021/09/28 08:07:07;;;;;;;1.48;1.33;;;22.50;51.20;;;26.73;34.26;102025.91;5115316;28;20054;-10
2021/09/28 08:09:35;;;;;;;1.50;1.40;;;22.60;51.30;;;26.75;34.02;102032.03;5115645;28;20050;-10
2021/09/28 08:12:02;;;;;;;1.30;1.20;;;22.60;51.30;;;26.75;34.05;102032.03;5115323;28;20058;-10
2021/09/28 08:14:28;;;;;;;1.58;1.48;;;22.60;51.20;;;26.75;34.22;102028.50;5115448;28;20139;-10
2021/09/28 08:16:54;;;;;;;1.83;1.40;;;22.60;51.10;;;26.78;34.12;102033.63;5115019;28;20097;-10
2021/09/28 08:19:20;;;;;;;1.27;1.17;;;22.70;51.10;;;26.77;33.97;102031.94;5114955;28;20048;-10
2021/09/28 08:21:46;;;;;;;1.63;1.52;;;22.70;51.20;;;26.78;33.96;102030.94;5114561;28;20047;-10
2021/09/28 08:24:12;;;;;;;2.35;1.30;;;22.60;51.10;;;26.75;34.06;102029.34;5114932;28;20047;-10
2021/09/28 08:29:22;;;;;;;1.45;1.35;;;22.70;51.10;;;26.76;33.88;102036.44;5113677;28;20048;-10
2021/09/28 08:31:48;;;;;;;1.40;1.27;;;22.60;51.10;;;26.76;33.97;102028.41;5114565;28;20871;-11
2021/09/28 08:34:16;;;;;;;1.58;1.17;;;22.60;51.20;;;26.76;34.07;102036.44;5095178;28;20048;-10
2021/09/28 08:36:42;;;;;;;1.65;1.50;;;22.60;51.20;;;26.76;34.22;102038.25;5114502;28;20547;-10
2021/09/28 08:39:15;;;;;;;1.63;1.25;;;22.60;51.30;;;26.73;33.97;102031.28;5114318;28;20127;-10
2021/09/28 08:41:45;;;;;;;2.00;1.40;;;22.60;51.30;;;26.75;34.13;102042.78;5112895;28;20058;-10
2021/09/28 08:44:12;;;;;;;1.63;1.48;;;22.60;51.30;;;26.72;33.97;102047.50;5114404;28;20441;-10
2021/09/28 08:46:37;;;;;;;1.40;1.30;;;22.50;51.30;;;26.73;33.90;102044.72;5114321;28;20129;-10
2021/09/28 08:49:04;;;;;;;1.60;1.50;;;22.50;51.40;;;26.72;34.10;102044.81;5114080;28;20154;-10
2021/09/28 08:51:30;;;;;;;1.30;1.20;;;22.50;51.40;;;26.69;33.98;102036.97;5114358;28;20442;-10
2021/09/28 08:53:56;;;;;;;1.40;1.30;;;22.50;51.40;;;26.68;34.09;102044.16;5114400;28;20059;-10
2021/09/28 08:56:22;;;;;;;2.15;1.40;;;22.50;51.50;;;26.68;34.03;102043.28;5114220;28;20040;-10
2021/09/28 08:59:02;;;;;;;1.60;1.50;;;22.50;51.60;;;26.66;34.02;102046.06;5114011;28;20051;-10
2021/09/28 09:01:29;;;;;;;1.58;1.40;;;22.50;51.50;;;26.67;34.11;102044.25;5114559;28;20144;-10
2021/09/28 09:03:56;;;;;;;1.42;1.33;;;22.50;51.50;;;26.66;34.00;102056.78;5114192;28;20078;-10
2021/09/28 09:06:34;;;;;;;2.50;1.50;;;22.50;51.50;;;26.63;34.15;102051.66;5094535;28;20079;-10
2021/09/28 09:09:02;;;;;;;1.65;1.35;;;22.50;52.10;;;26.62;33.99;102045.38;5114071;28;20052;-10
2021/09/28 09:11:36;;;;;;;1.75;1.50;;;22.50;51.50;;;26.62;34.28;102049.91;5114470;28;20063;-10
2021/09/28 09:14:13;;;;;;;2.28;1.42;;;22.50;51.60;;;26.61;33.96;102050.84;5114065;28;20066;-10
2021/09/28 09:16:41;;;;;;;2.67;1.70;;;22.50;51.90;;;26.59;34.06;102048.28;5113588;28;20047;-10
2021/09/28 09:19:18;;;;;;;2.58;1.35;;;22.50;51.70;;;26.59;34.24;102050.09;5113829;28;20047;-10
2021/09/28 09:21:56;;;;;;;3.20;1.52;;;22.40;51.70;;;26.60;34.33;102043.78;5113697;28;20052;-10
2021/09/28 09:24:51;;;;;;;2.03;1.23;;;22.40;51.70;;;26.61;34.33;102049.06;5114414;28;20127;-10
2021/09/28 09:27:30;;;;;;;2.97;1.52;;;22.40;51.70;;;26.59;34.21;102045.59;5113705;28;20518;-17
2021/09/28 09:30:15;;;;;;;1.45;1.35;;;22.50;51.60;;;26.61;34.17;102049.06;5113664;28;20051;-10
2021/09/28 09:32:56;;;;;;;2.08;1.10;;;22.50;51.60;;;26.60;34.26;102041.94;5113801;28;20054;-10
2021/09/28 09:35:24;;;;;;;1.85;1.52;;;22.50;51.50;;;26.60;34.22;102046.47;5113653;28;20495;-10
2021/09/28 09:37:50;;;;;;;2.05;1.40;;;22.50;51.60;;;26.57;34.13;102044.84;5113374;28;20063;-11
2021/09/28 09:40:35;;;;;;;4.00;2.00;;;22.50;51.60;;;26.59;34.32;102044.75;5113246;28;20391;-10
2021/09/28 09:43:01;;;;;;;3.13;1.65;;;22.50;51.50;;;26.60;34.08;102043.78;5113312;28;20096;-10
2021/09/28 09:45:27;;;;;;;1.52;1.38;;;22.50;51.50;;;26.58;34.24;102033.16;5113775;28;20472;-10
2021/09/28 09:47:53;;;;;;;1.80;1.30;;;22.50;51.50;;;26.59;34.22;102040.22;5113395;28;20059;-10
2021/09/28 09:50:22;;;;;;;2.05;1.33;;;22.50;51.50;;;26.58;34.29;102041.22;5095517;28;20392;-10
2021/09/28 09:53:08;;;;;;;1.20;1.05;;;22.50;51.50;;;26.61;34.14;102040.13;5113351;28;20093;-11
2021/09/28 09:55:38;;;;;;;2.78;1.50;;;22.50;51.50;;;26.59;34.15;102042.91;5113403;28;20109;-11
2021/09/28 09:58:05;;;;;;;1.15;0.88;;;22.50;51.50;;;26.63;34.21;102038.25;5113070;28;20048;-10
2021/09/28 10:00:33;;;;;;;3.30;1.38;;;22.50;51.60;;;26.63;34.21;102035.56;5113212;28;20069;-11
2021/09/28 10:02:59;;;;;;;2.85;1.80;;;22.50;51.50;;;26.59;34.05;102040.22;5112978;28;20050;-12
2021/09/28 10:05:25;;;;;;;2.05;1.48;;;22.50;51.40;;;26.59;34.27;102045.59;5113173;28;20043;-11
2021/09/28 10:07:51;;;;;;;1.80;1.40;;;22.50;51.40;;;26.61;34.33;102045.47;5113124;28;20046;-12
2021/09/28 10:10:20;;;;;;;2.40;1.30;;;22.50;51.50;;;26.61;34.22;102045.47;5113161;28;20048;-12
2021/09/28 10:12:46;;;;;;;2.78;2.10;;;22.50;51.40;;;26.59;33.97;102034.84;5094705;28;20048;-10
2021/09/28 10:15:17;;;;;;;1.75;1.35;;;22.50;51.40;;;26.61;34.22;102037.44;5113541;28;20043;-11
2021/09/28 10:17:49;;;;;;;1.65;1.20;;;22.50;51.40;;;26.61;34.07;102034.75;5113186;28;20407;-12